Time;durP1;ratioP1;P1;durP2;ratioP2;P2;SDS_P1;SDS_P2;PMS_P1;PMS_P2;Temp;Humidity;BMP_temperature;BMP_pressure;BME280_temperature;BME280_humidity;BME280_pressure;Samples;Min_cycle;Max_cycle;Signal;HPM_P1;HPM_P2
2022/11/13 00:01:08;;;;;;;15.63;10.80;;;4.50;99.90;;;;;;5070355;28;20201;-86
2022/11/13 00:03:35;;;;;;;40.07;11.47;;;4.50;99.90;;;;;;5066272;28;20323;-86
2022/11/13 00:06:03;;;;;;;51.00;11.87;;;4.60;99.90;;;;;;5069681;28;20304;-86
2022/11/13 00:08:30;;;;;;;43.57;11.27;;;4.50;99.90;;;;;;5066975;28;20352;-86
2022/11/13 00:11:01;;;;;;;37.90;11.00;;;4.50;99.90;;;;;;5065938;28;20725;-86
2022/11/13 00:13:29;;;;;;;29.53;10.90;;;4.50;99.90;;;;;;5067738;28;20205;-86
2022/11/13 00:15:57;;;;;;;30.50;10.93;;;4.50;99.90;;;;;;5067611;28;20193;-86
2022/11/13 00:18:24;;;;;;;41.13;11.43;;;4.50;99.90;;;;;;5067022;28;20211;-87
2022/11/13 00:20:51;;;;;;;28.67;10.90;;;4.50;99.90;;;;;;5066172;28;20772;-86
2022/11/13 00:23:18;;;;;;;20.10;11.03;;;4.40;99.90;;;;;;5056608;28;20207;-86
2022/11/13 00:25:45;;;;;;;28.93;11.40;;;4.40;99.90;;;;;;5063975;28;20653;-86
2022/11/13 00:28:12;;;;;;;30.70;11.80;;;4.50;99.90;;;;;;5064611;28;20284;-87
2022/11/13 00:30:40;;;;;;;27.77;11.83;;;4.50;99.90;;;;;;5060608;28;20206;-86
2022/11/13 00:33:07;;;;;;;15.23;10.47;;;4.50;99.90;;;;;;5061286;28;20224;-86
2022/11/13 00:35:34;;;;;;;43.43;11.40;;;4.60;99.90;;;;;;5059212;28;20209;-86
2022/11/13 00:38:01;;;;;;;51.23;11.40;;;4.60;99.90;;;;;;5065671;28;20212;-86
2022/11/13 00:40:27;;;;;;;25.07;10.90;;;4.60;99.90;;;;;;5059180;28;20293;-86
2022/11/13 00:42:55;;;;;;;34.60;9.90;;;4.50;99.90;;;;;;5059146;28;20321;-86
2022/11/13 00:45:22;;;;;;;36.20;10.97;;;4.60;99.90;;;;;;5062248;28;20202;-85
2022/11/13 00:47:51;;;;;;;22.33;10.53;;;4.60;99.90;;;;;;5055722;28;20764;-87
2022/11/13 00:50:18;;;;;;;33.87;10.00;;;4.60;99.90;;;;;;5065239;28;20197;-88
2022/11/13 00:52:45;;;;;;;16.10;10.60;;;4.70;99.90;;;;;;5067347;28;20227;-86
2022/11/13 00:55:11;;;;;;;34.83;10.83;;;4.80;99.90;;;;;;5063756;28;20349;-86
2022/11/13 00:57:38;;;;;;;22.77;10.13;;;4.80;99.90;;;;;;5062166;28;20574;-86
2022/11/13 01:00:06;;;;;;;34.10;10.87;;;4.80;99.90;;;;;;5062586;28;20204;-86
2022/11/13 01:02:33;;;;;;;67.00;11.87;;;4.60;99.90;;;;;;5069918;28;20580;-86
2022/11/13 01:05:02;;;;;;;53.93;10.60;;;4.60;99.90;;;;;;5069913;28;20208;-86
2022/11/13 01:07:28;;;;;;;60.17;10.20;;;4.60;99.90;;;;;;5061694;28;20205;-86
2022/11/13 01:09:55;;;;;;;30.20;9.07;;;4.60;99.90;;;;;;5053057;28;20213;-85
2022/11/13 01:12:22;;;;;;;25.00;9.03;;;4.70;99.90;;;;;;5062954;28;20225;-87
2022/11/13 01:14:49;;;;;;;14.97;9.73;;;4.70;99.90;;;;;;5059247;28;20301;-85
2022/11/13 01:17:16;;;;;;;27.23;9.30;;;4.80;99.90;;;;;;5063863;28;20203;-86
2022/11/13 01:19:43;;;;;;;70.47;10.60;;;4.80;99.90;;;;;;5064925;28;20300;-86
2022/11/13 01:22:13;;;;;;;13.97;9.27;;;4.80;99.90;;;;;;5065681;28;20293;-86
2022/11/13 01:24:40;;;;;;;50.00;10.03;;;4.70;99.90;;;;;;5072459;28;20591;-86
2022/11/13 01:27:07;;;;;;;53.23;10.30;;;4.80;99.90;;;;;;5053678;28;20240;-86
2022/11/13 01:29:37;;;;;;;15.83;9.43;;;4.80;99.90;;;;;;5063627;28;20197;-86
2022/11/13 01:32:05;;;;;;;44.50;9.30;;;4.80;99.90;;;;;;5062403;28;20278;-85
2022/11/13 01:34:32;;;;;;;17.83;8.27;;;4.70;99.90;;;;;;5064776;28;20197;-86
2022/11/13 01:36:58;;;;;;;26.63;8.53;;;4.70;99.90;;;;;;5072752;28;20209;-86
2022/11/13 01:39:27;;;;;;;12.20;7.70;;;4.60;99.90;;;;;;5067886;28;20185;-86
2022/11/13 01:41:54;;;;;;;45.23;8.20;;;4.60;99.90;;;;;;5060515;28;20211;-88
2022/11/13 01:44:20;;;;;;;21.73;7.97;;;4.60;99.90;;;;;;5074266;28;20648;-87
2022/11/13 01:46:50;;;;;;;41.60;8.33;;;4.60;99.90;;;;;;5070406;28;20649;-86
2022/11/13 01:49:26;;;;;;;34.27;7.50;;;4.50;99.90;;;;;;5068887;28;20208;-86
2022/11/13 01:51:57;;;;;;;29.83;7.47;;;4.50;99.90;;;;;;5052059;28;20346;-87
2022/11/13 01:54:29;;;;;;;30.57;6.77;;;4.50;99.90;;;;;;5063965;28;20217;-86
2022/11/13 01:56:57;;;;;;;50.43;8.43;;;4.50;99.90;;;;;;5067848;28;20201;-86
2022/11/13 01:59:27;;;;;;;16.07;6.83;;;4.60;99.90;;;;;;5064472;28;20712;-86
2022/11/13 02:01:55;;;;;;;13.17;7.37;;;4.50;99.90;;;;;;5059925;28;20553;-86
2022/11/13 02:04:23;;;;;;;20.17;6.93;;;4.60;99.90;;;;;;5065480;28;20202;-85
2022/11/13 02:06:55;;;;;;;16.07;6.63;;;4.60;99.90;;;;;;5074277;28;20201;-86
2022/11/13 02:09:26;;;;;;;20.63;6.20;;;4.70;99.90;;;;;;5064819;28;20293;-86
2022/11/13 02:11:54;;;;;;;13.97;6.17;;;4.60;99.90;;;;;;5063301;28;20327;-85
2022/11/13 02:14:24;;;;;;;56.83;8.27;;;4.60;99.90;;;;;;5069564;28;20197;-85
2022/11/13 02:17:04;;;;;;;85.83;8.33;;;4.50;99.90;;;;;;5066208;28;20204;-86
2022/11/13 02:19:35;;;;;;;58.80;7.50;;;4.50;99.90;;;;;;5070809;28;20228;-86
2022/11/13 02:22:10;;;;;;;24.23;7.90;;;4.30;99.90;;;;;;5072224;28;20518;-86
2022/11/13 02:24:41;;;;;;;108.67;10.63;;;4.40;99.90;;;;;;5066040;28;20200;-85
2022/11/13 02:27:18;;;;;;;37.43;8.20;;;4.30;99.90;;;;;;5063089;28;20288;-86
2022/11/13 02:29:44;;;;;;;59.07;9.17;;;4.40;99.90;;;;;;5064578;28;20193;-86
2022/11/13 02:32:11;;;;;;;18.57;7.90;;;4.40;99.90;;;;;;5069792;28;20256;-86
2022/11/13 02:34:38;;;;;;;24.03;8.43;;;4.50;99.90;;;;;;5068217;28;20682;-86
2022/11/13 02:37:05;;;;;;;80.07;9.80;;;4.50;99.90;;;;;;5068504;28;20205;-85
2022/11/13 02:39:32;;;;;;;32.13;9.17;;;4.40;99.90;;;;;;5061313;28;20283;-86
2022/11/13 02:42:00;;;;;;;77.90;10.60;;;4.30;99.90;;;;;;5065656;28;20205;-87
2022/11/13 02:44:27;;;;;;;76.10;10.07;;;4.30;99.90;;;;;;5070542;28;20771;-86
2022/11/13 02:46:54;;;;;;;69.80;11.17;;;4.30;99.90;;;;;;5065462;28;20260;-86
2022/11/13 02:49:20;;;;;;;24.03;9.23;;;4.30;99.90;;;;;;5070107;28;20289;-86
2022/11/13 02:51:47;;;;;;;18.43;9.03;;;4.30;99.90;;;;;;5059345;28;20210;-86
2022/11/13 02:54:14;;;;;;;19.63;8.30;;;4.30;99.90;;;;;;5056970;28;20258;-85
2022/11/13 02:56:41;;;;;;;13.03;8.10;;;4.50;99.90;;;;;;5066713;28;20223;-85
2022/11/13 02:59:09;;;;;;;52.87;8.90;;;4.50;99.90;;;;;;5065517;28;20205;-86
2022/11/13 03:01:36;;;;;;;55.13;9.33;;;4.40;99.90;;;;;;5072682;28;20229;-87
2022/11/13 03:04:03;;;;;;;50.10;9.00;;;4.30;99.90;;;;;;5068124;28;20228;-86
2022/11/13 03:06:30;;;;;;;55.73;9.20;;;4.30;99.90;;;;;;5070192;28;20237;-86
2022/11/13 03:08:56;;;;;;;40.37;8.33;;;4.10;99.90;;;;;;5074673;28;20300;-85
2022/11/13 03:11:23;;;;;;;13.17;7.43;;;4.10;99.90;;;;;;5067257;28;20209;-87
2022/11/13 03:13:50;;;;;;;34.87;7.87;;;4.10;99.90;;;;;;5072230;28;20220;-85
2022/11/13 03:16:21;;;;;;;19.77;7.63;;;4.20;99.90;;;;;;5060471;28;20201;-86
2022/11/13 03:18:48;;;;;;;16.00;7.47;;;4.20;99.90;;;;;;5062635;28;20289;-85
2022/11/13 03:21:15;;;;;;;16.73;7.47;;;4.20;99.90;;;;;;5079301;28;20278;-85
2022/11/13 03:23:44;;;;;;;38.97;7.83;;;4.10;99.90;;;;;;5082911;28;20201;-85
2022/11/13 03:26:14;;;;;;;14.40;6.90;;;4.20;99.90;;;;;;5057643;28;20709;-86
2022/11/13 03:28:48;;;;;;;12.70;7.00;;;4.20;99.90;;;;;;5068618;28;20212;-86
2022/11/13 03:31:14;;;;;;;25.07;6.77;;;4.20;99.90;;;;;;5065451;28;20287;-86
2022/11/13 03:33:43;;;;;;;22.30;7.00;;;4.10;99.90;;;;;;5074503;28;20232;-85
2022/11/13 03:36:10;;;;;;;33.63;7.53;;;4.10;99.90;;;;;;5061260;28;20256;-85
2022/11/13 03:38:47;;;;;;;9.43;6.67;;;4.20;99.90;;;;;;5062205;28;20315;-85
2022/11/13 03:41:14;;;;;;;26.07;6.67;;;4.10;99.90;;;;;;5066778;28;20201;-86
2022/11/13 03:43:42;;;;;;;35.87;7.10;;;4.00;99.90;;;;;;5060234;28;20221;-88
2022/11/13 03:46:09;;;;;;;17.27;6.50;;;4.00;99.90;;;;;;5068539;28;20201;-86
2022/11/13 03:48:36;;;;;;;14.63;6.17;;;3.90;99.90;;;;;;5066761;28;20300;-87
2022/11/13 03:51:04;;;;;;;40.80;7.40;;;3.90;99.90;;;;;;5064822;28;20199;-85
2022/11/13 03:53:31;;;;;;;53.23;7.67;;;3.80;99.90;;;;;;5070564;28;20252;-86
2022/11/13 03:55:58;;;;;;;38.30;7.77;;;3.70;99.90;;;;;;5067894;28;20211;-87
2022/11/13 03:58:30;;;;;;;27.83;7.40;;;3.60;99.90;;;;;;5066565;28;20221;-87
2022/11/13 04:00:56;;;;;;;13.30;6.73;;;3.60;99.90;;;;;;5063800;28;20237;-86
2022/11/13 04:03:23;;;;;;;21.10;6.70;;;3.60;99.90;;;;;;5063825;28;20234;-86
2022/11/13 04:05:51;;;;;;;24.80;6.90;;;3.60;99.90;;;;;;5072839;28;20292;-86
2022/11/13 04:08:19;;;;;;;52.67;6.93;;;3.50;99.90;;;;;;5062751;28;20212;-86
2022/11/13 04:10:46;;;;;;;49.43;7.13;;;3.60;99.90;;;;;;5068170;28;20355;-86
2022/11/13 04:13:13;;;;;;;54.30;7.20;;;3.50;99.90;;;;;;5059358;28;20709;-86
2022/11/13 04:15:40;;;;;;;12.43;5.97;;;3.50;99.90;;;;;;5062430;28;20248;-87
2022/11/13 04:18:07;;;;;;;59.53;6.73;;;3.50;99.90;;;;;;5072189;28;20201;-86
2022/11/13 04:20:36;;;;;;;15.17;6.13;;;3.50;99.90;;;;;;5065897;28;20208;-86
2022/11/13 04:23:06;;;;;;;49.20;6.80;;;3.70;99.90;;;;;;5057752;28;20197;-86
2022/11/13 04:25:34;;;;;;;9.07;5.67;;;3.80;99.90;;;;;;5063680;28;20198;-86
2022/11/13 04:28:01;;;;;;;51.40;7.27;;;3.80;99.90;;;;;;5062211;28;20589;-86
2022/11/13 04:30:28;;;;;;;36.60;5.93;;;3.70;99.90;;;;;;5062746;28;20237;-86
2022/11/13 04:32:55;;;;;;;13.80;5.57;;;3.60;99.90;;;;;;5067525;28;20564;-85
2022/11/13 04:35:22;;;;;;;16.50;5.60;;;3.60;99.90;;;;;;5061809;28;20288;-85
2022/11/13 04:37:54;;;;;;;22.80;6.20;;;3.60;99.90;;;;;;5066452;28;20627;-85
2022/11/13 04:40:21;;;;;;;40.77;6.67;;;3.50;99.90;;;;;;5065830;28;20205;-86
2022/11/13 04:42:48;;;;;;;22.13;5.97;;;3.50;99.90;;;;;;5066643;28;20205;-85
2022/11/13 04:45:15;;;;;;;34.80;5.93;;;3.50;99.90;;;;;;5060617;28;20202;-86
2022/11/13 04:47:48;;;;;;;42.37;6.70;;;3.40;99.90;;;;;;5068782;28;20284;-86
2022/11/13 04:50:16;;;;;;;22.43;5.97;;;3.30;99.90;;;;;;5064931;28;20669;-86
2022/11/13 04:52:43;;;;;;;20.97;6.13;;;3.30;99.90;;;;;;5068253;28;20308;-86
2022/11/13 04:55:10;;;;;;;18.20;5.80;;;3.20;99.90;;;;;;5065030;28;21242;-86
2022/11/13 04:57:37;;;;;;;8.13;5.20;;;3.30;99.90;;;;;;5065017;28;20646;-87
2022/11/13 05:00:07;;;;;;;67.33;6.37;;;3.40;99.90;;;;;;5058535;28;20290;-86
2022/11/13 05:02:34;;;;;;;26.17;5.67;;;3.40;99.90;;;;;;5066902;28;20209;-86
2022/11/13 05:05:01;;;;;;;35.83;5.97;;;3.40;99.90;;;;;;5067374;28;20205;-86
2022/11/13 05:07:28;;;;;;;23.80;5.60;;;3.30;99.90;;;;;;5063177;28;20296;-86
2022/11/13 05:09:55;;;;;;;11.37;5.13;;;3.20;99.90;;;;;;5076855;28;20204;-89
2022/11/13 05:12:22;;;;;;;29.03;5.80;;;3.30;99.90;;;;;;5076665;28;20632;-86
2022/11/13 05:14:49;;;;;;;17.30;5.63;;;3.20;99.90;;;;;;5067702;28;20206;-87
2022/11/13 05:17:17;;;;;;;29.33;5.90;;;3.30;99.90;;;;;;5058199;28;20212;-86
2022/11/13 05:19:44;;;;;;;23.23;6.13;;;3.30;99.90;;;;;;5066915;28;20201;-86
2022/11/13 05:22:11;;;;;;;11.40;5.70;;;3.30;99.90;;;;;;5061436;28;20300;-85
2022/11/13 05:24:37;;;;;;;25.07;6.30;;;3.30;99.90;;;;;;5066118;28;20216;-86
2022/11/13 05:27:04;;;;;;;31.50;6.40;;;3.30;99.90;;;;;;5085292;28;20295;-86
2022/11/13 05:29:31;;;;;;;30.03;6.10;;;3.20;99.90;;;;;;5072394;28;20284;-86
2022/11/13 05:31:58;;;;;;;12.87;5.20;;;3.20;99.90;;;;;;5060429;28;20237;-85
2022/11/13 05:34:26;;;;;;;28.37;6.33;;;3.10;99.90;;;;;;5059415;28;20213;-85
2022/11/13 05:36:53;;;;;;;83.70;7.37;;;3.20;99.90;;;;;;5062374;28;20298;-85
2022/11/13 05:39:20;;;;;;;32.87;6.80;;;3.20;99.90;;;;;;5067498;28;20197;-87
2022/11/13 05:41:48;;;;;;;19.50;5.83;;;3.20;99.90;;;;;;5065243;28;20197;-85
2022/11/13 05:44:14;;;;;;;16.10;5.57;;;3.20;99.90;;;;;;5065256;28;20209;-85
2022/11/13 05:46:41;;;;;;;12.20;4.33;;;3.40;99.90;;;;;;5065887;28;20284;-85
2022/11/13 05:49:10;;;;;;;37.90;6.27;;;3.40;99.90;;;;;;5064301;28;20631;-86
2022/11/13 05:51:38;;;;;;;47.47;6.07;;;3.30;99.90;;;;;;5056766;28;20618;-85
2022/11/13 05:54:06;;;;;;;24.83;5.73;;;3.20;99.90;;;;;;5066519;28;20613;-86
2022/11/13 05:56:37;;;;;;;16.00;5.30;;;3.30;99.90;;;;;;5063719;28;20216;-86
2022/11/13 05:59:06;;;;;;;13.77;5.13;;;3.30;99.90;;;;;;5066106;28;20288;-86
2022/11/13 06:01:35;;;;;;;11.43;5.00;;;3.30;99.90;;;;;;5064922;28;20664;-88
2022/11/13 06:04:02;;;;;;;58.90;7.17;;;3.20;99.90;;;;;;5060798;28;20197;-86
2022/11/13 06:06:30;;;;;;;39.00;6.10;;;3.10;99.90;;;;;;5065871;28;20278;-87
2022/11/13 06:08:59;;;;;;;56.00;6.80;;;3.10;99.90;;;;;;5068901;28;20284;-87
2022/11/13 06:11:28;;;;;;;48.80;6.60;;;3.00;99.90;;;;;;5065983;28;20685;-85
2022/11/13 06:13:56;;;;;;;39.47;6.53;;;3.00;99.90;;;;;;5066279;28;20225;-86
2022/11/13 06:16:25;;;;;;;21.17;6.03;;;2.90;99.90;;;;;;5069110;28;20292;-86
2022/11/13 06:18:55;;;;;;;30.27;5.47;;;2.90;99.90;;;;;;5068152;28;20205;-86
2022/11/13 06:21:23;;;;;;;23.67;5.80;;;2.90;99.90;;;;;;5068080;28;20308;-86
2022/11/13 06:23:50;;;;;;;34.53;6.00;;;2.80;99.90;;;;;;5059138;28;20214;-84
2022/11/13 06:26:23;;;;;;;22.67;5.60;;;2.80;99.90;;;;;;5062471;28;20201;-86
2022/11/13 06:28:50;;;;;;;16.47;5.17;;;2.90;99.90;;;;;;5068272;28;20207;-84
2022/11/13 06:31:18;;;;;;;10.53;5.53;;;2.90;99.90;;;;;;5063141;28;20225;-86
2022/11/13 06:33:45;;;;;;;12.40;6.07;;;2.80;99.90;;;;;;5060144;28;20225;-84
2022/11/13 06:36:20;;;;;;;16.13;5.27;;;2.80;99.90;;;;;;5072658;28;20602;-86
2022/11/13 06:38:47;;;;;;;9.33;5.47;;;2.90;99.90;;;;;;5068057;28;20207;-85
2022/11/13 06:41:19;;;;;;;14.20;5.90;;;2.80;99.90;;;;;;5069097;28;20589;-86
2022/11/13 06:43:47;;;;;;;16.80;5.73;;;2.80;99.90;;;;;;5071361;28;21033;-85
2022/11/13 06:46:16;;;;;;;28.33;5.73;;;2.80;99.90;;;;;;5070775;28;20204;-86
2022/11/13 06:48:48;;;;;;;8.50;5.40;;;2.80;99.90;;;;;;5070307;28;20288;-86
2022/11/13 06:51:17;;;;;;;15.43;5.30;;;2.90;99.90;;;;;;5070656;28;20208;-85
2022/11/13 06:53:44;;;;;;;17.20;5.50;;;3.00;99.90;;;;;;5071479;28;20225;-85
2022/11/13 06:56:12;;;;;;;12.40;4.83;;;3.10;99.90;;;;;;5065593;28;20209;-88
2022/11/13 06:58:49;;;;;;;24.73;5.20;;;3.10;99.90;;;;;;5067153;28;20570;-86
2022/11/13 07:01:18;;;;;;;25.87;5.33;;;3.00;99.90;;;;;;5064544;28;20206;-85
2022/11/13 07:03:45;;;;;;;6.80;4.67;;;2.90;99.90;;;;;;5072770;28;20250;-85
2022/11/13 07:06:15;;;;;;;27.53;5.47;;;2.80;99.90;;;;;;5070903;28;20487;-86
2022/11/13 07:08:43;;;;;;;23.17;5.60;;;2.90;99.90;;;;;;5064128;28;20216;-85
2022/11/13 07:11:11;;;;;;;14.33;5.20;;;2.90;99.90;;;;;;5068996;28;20661;-85
2022/11/13 07:13:39;;;;;;;28.87;5.43;;;3.00;99.90;;;;;;5069745;28;20772;-86
2022/11/13 07:16:09;;;;;;;33.73;5.80;;;3.00;99.90;;;;;;5068831;28;20193;-88
2022/11/13 07:18:36;;;;;;;13.60;5.30;;;3.00;99.90;;;;;;5068887;28;20603;-85
2022/11/13 07:21:05;;;;;;;34.97;6.33;;;3.10;99.90;;;;;;5064719;28;20201;-85
2022/11/13 07:23:32;;;;;;;18.43;5.57;;;3.00;99.90;;;;;;5067615;28;20201;-85
2022/11/13 07:25:59;;;;;;;39.53;6.77;;;3.00;99.90;;;;;;5067517;28;20728;-85
2022/11/13 07:28:26;;;;;;;10.30;5.03;;;3.00;99.90;;;;;;5060940;28;20327;-85
2022/11/13 07:30:53;;;;;;;17.23;6.10;;;3.10;99.90;;;;;;5058135;28;20210;-85
2022/11/13 07:33:21;;;;;;;13.60;5.40;;;3.10;99.90;;;;;;5067135;28;20206;-85
2022/11/13 07:35:54;;;;;;;12.20;6.10;;;3.20;99.90;;;;;;5062871;28;20243;-85
2022/11/13 07:38:21;;;;;;;34.40;6.37;;;3.30;99.90;;;;;;5067900;28;20213;-85
2022/11/13 07:40:48;;;;;;;14.77;5.93;;;3.40;99.90;;;;;;5073019;28;20205;-84
2022/11/13 07:43:15;;;;;;;17.60;5.33;;;3.40;99.90;;;;;;5068638;28;20204;-86
2022/11/13 07:45:42;;;;;;;12.50;5.77;;;3.50;99.90;;;;;;5069855;28;20297;-86
2022/11/13 07:48:18;;;;;;;31.53;6.33;;;3.50;99.90;;;;;;5065970;28;20649;-87
2022/11/13 07:50:50;;;;;;;9.90;5.57;;;3.60;99.70;;;;;;5066934;28;20289;-87
2022/11/13 07:53:18;;;;;;;14.83;5.53;;;3.60;99.80;;;;;;5066309;28;20488;-88
2022/11/13 07:55:48;;;;;;;14.10;5.10;;;3.60;99.90;;;;;;5066290;28;20651;-88
2022/11/13 07:58:15;;;;;;;7.97;5.60;;;3.60;99.50;;;;;;5066794;28;20673;-89
2022/11/13 08:00:42;;;;;;;40.17;6.33;;;3.70;99.70;;;;;;5067483;28;20232;-88
2022/11/13 08:03:12;;;;;;;20.30;6.70;;;3.70;99.30;;;;;;5068322;28;20250;-87
2022/11/13 08:05:40;;;;;;;29.60;6.33;;;3.70;99.20;;;;;;5064472;28;20735;-88
2022/11/13 08:08:11;;;;;;;9.53;5.50;;;3.70;99.30;;;;;;5067746;28;20578;-87
2022/11/13 08:10:38;;;;;;;8.63;5.97;;;3.90;98.90;;;;;;5068915;28;20204;-88
2022/11/13 08:13:07;;;;;;;18.67;6.27;;;4.10;98.90;;;;;;5069273;28;20212;-87
2022/11/13 08:15:34;;;;;;;9.57;5.83;;;4.10;98.50;;;;;;5065233;28;20658;-87
2022/11/13 08:18:02;;;;;;;7.57;5.40;;;4.00;99.10;;;;;;5060977;28;20828;-90
2022/11/13 08:20:31;;;;;;;5.97;5.17;;;4.20;99.30;;;;;;5065641;28;20836;-90
2022/11/13 08:22:58;;;;;;;14.87;6.00;;;4.50;98.30;;;;;;5066789;28;20244;-88
2022/11/13 08:25:27;;;;;;;13.80;6.27;;;4.60;97.70;;;;;;5055722;28;20317;-88
2022/11/13 08:28:00;;;;;;;7.73;6.40;;;4.40;97.80;;;;;;5052826;28;21621;-90
2022/11/13 08:30:28;;;;;;;8.90;6.80;;;4.30;98.50;;;;;;5070849;28;20293;-88
2022/11/13 08:32:55;;;;;;;9.13;7.07;;;4.50;98.40;;;;;;5069102;28;20292;-88
2022/11/13 08:35:22;;;;;;;7.43;6.50;;;4.60;98.80;;;;;;5069385;28;20308;-87
2022/11/13 08:37:49;;;;;;;9.43;7.77;;;4.60;98.80;;;;;;5071021;28;20204;-88
2022/11/13 08:40:18;;;;;;;12.23;7.93;;;4.80;98.10;;;;;;5065596;28;20252;-89
2022/11/13 08:42:46;;;;;;;11.43;8.57;;;4.80;97.50;;;;;;5069507;28;20193;-89
2022/11/13 08:45:13;;;;;;;12.13;8.57;;;5.00;97.40;;;;;;5071639;28;20207;-89
2022/11/13 08:47:40;;;;;;;20.90;9.50;;;5.00;96.30;;;;;;5071326;28;20289;-89
2022/11/13 08:50:08;;;;;;;11.60;8.47;;;5.00;96.30;;;;;;5064821;28;20197;-89
2022/11/13 08:52:35;;;;;;;11.50;9.03;;;5.10;96.20;;;;;;5072046;28;20198;-89
2022/11/13 08:55:06;;;;;;;14.00;10.87;;;5.00;96.90;;;;;;5078644;28;20225;-90
2022/11/13 08:57:33;;;;;;;13.30;10.03;;;5.10;96.50;;;;;;5067194;28;20209;-90
2022/11/13 09:00:02;;;;;;;14.37;9.93;;;5.00;96.50;;;;;;5072738;28;20204;-90
2022/11/13 09:02:29;;;;;;;14.30;10.47;;;5.10;97.00;;;;;;5071198;28;20201;-91
2022/11/13 09:05:00;;;;;;;11.57;9.73;;;5.30;96.50;;;;;;5070525;28;20228;-92
2022/11/13 09:07:27;;;;;;;11.17;9.60;;;5.20;96.10;;;;;;5071819;28;20207;-92
2022/11/13 09:09:54;;;;;;;12.70;10.00;;;5.30;96.20;;;;;;5067563;28;20205;-91
2022/11/13 09:12:21;;;;;;;11.17;9.03;;;5.40;96.50;;;;;;5070172;28;20198;-91
2022/11/13 09:14:48;;;;;;;14.83;9.87;;;5.40;95.80;;;;;;5071622;28;20579;-91
2022/11/13 09:17:16;;;;;;;12.17;9.70;;;5.40;95.90;;;;;;5062502;28;21082;-90
2022/11/13 09:19:43;;;;;;;11.53;8.90;;;5.40;96.80;;;;;;5066741;28;20202;-90
2022/11/13 09:22:10;;;;;;;12.43;8.60;;;5.60;95.60;;;;;;5066281;28;20201;-91
2022/11/13 09:24:38;;;;;;;10.63;8.73;;;5.60;95.30;;;;;;5074684;28;20292;-91
2022/11/13 09:27:05;;;;;;;11.53;8.23;;;5.60;95.20;;;;;;5069651;28;20208;-92
2022/11/13 09:29:32;;;;;;;10.87;8.73;;;5.80;95.20;;;;;;5070180;28;20288;-92
2022/11/13 09:31:59;;;;;;;10.90;9.10;;;5.70;94.40;;;;;;5069059;28;20746;-92
2022/11/13 09:34:28;;;;;;;10.70;8.50;;;5.50;95.20;;;;;;5066723;28;20304;-92
2022/11/13 09:36:55;;;;;;;9.83;8.20;;;5.40;96.30;;;;;;5066938;28;20199;-92
2022/11/13 09:39:48;;;;;;;12.73;8.77;;;5.60;96.20;;;;;;5065195;28;20220;-90
2022/11/13 09:42:28;;;;;;;11.23;9.70;;;5.90;95.30;;;;;;5071576;28;20284;-91
2022/11/13 09:45:14;;;;;;;11.80;9.20;;;5.90;95.30;;;;;;5069948;28;20247;-91
2022/11/13 09:47:44;;;;;;;12.20;9.67;;;5.70;95.30;;;;;;5069290;28;20205;-91
2022/11/13 09:50:19;;;;;;;12.32;9.68;;;5.80;95.70;;;;;;5068408;28;20202;-90
2022/11/13 09:56:22;;;;;;;11.77;9.93;;;6.10;95.30;;;;;;5071527;28;20224;-95
2022/11/13 09:59:28;;;;;;;12.47;9.73;;;6.20;94.80;;;;;;5065419;28;20288;-93
2022/11/13 10:12:09;;;;;;;9.93;8.18;;;6.50;94.00;;;;;;5079946;28;20255;-90
2022/11/13 10:14:42;;;;;;;10.07;8.10;;;6.50;94.60;;;;;;5073821;28;20213;-90
2022/11/13 10:17:44;;;;;;;8.57;7.68;;;6.40;94.50;;;;;;5076560;28;20595;-90
2022/11/13 10:23:37;;;;;;;8.20;7.15;;;6.70;94.90;;;;;;5074394;28;20647;-89
2022/11/13 10:26:23;;;;;;;8.30;7.25;;;6.70;94.90;;;;;;5058592;28;20186;-91
2022/11/13 10:29:11;;;;;;;8.30;7.43;;;6.70;95.10;;;;;;5066310;28;20189;-91
2022/11/13 10:31:44;;;;;;;8.32;7.50;;;7.10;94.40;;;;;;5064623;28;20537;-92
2022/11/13 10:34:13;;;;;;;8.30;7.47;;;7.40;94.30;;;;;;5066484;28;20727;-91
2022/11/13 10:40:02;;;;;;;6.57;5.93;;;8.20;91.80;;;;;;5053551;28;20177;-91
2022/11/13 10:42:37;;;;;;;6.13;5.53;;;8.80;90.40;;;;;;5079126;28;20222;-92
2022/11/13 10:45:14;;;;;;;7.40;6.45;;;8.50;90.40;;;;;;5067521;28;20245;-92
2022/11/13 11:05:15;;;;;;;6.55;5.95;;;8.40;91.60;;;;;;5087479;22;20236;-90
2022/11/13 11:08:08;;;;;;;7.15;6.40;;;8.00;91.70;;;;;;5070601;28;20323;-91
2022/11/13 11:12:14;;;;;;;7.28;6.47;;;8.00;93.30;;;;;;5063605;28;20197;-91
2022/11/13 11:13:25;;;;;;;8.50;6.97;;;8.20;91.90;;;;;;5066352;28;20688;-89
2022/11/13 11:15:58;;;;;;;7.70;6.90;;;8.10;92.30;;;;;;5067831;28;20217;-89
2022/11/13 11:18:40;;;;;;;10.57;6.95;;;8.20;92.20;;;;;;5068092;28;20254;-92
2022/11/13 11:28:07;;;;;;;9.30;7.60;;;8.20;92.60;;;;;;5079438;28;20191;-90
2022/11/13 11:34:15;;;;;;;7.80;6.95;;;8.50;92.60;;;;;;5070610;28;20196;-90
2022/11/13 11:36:52;;;;;;;9.98;7.93;;;8.60;93.10;;;;;;5086037;28;20317;-92
2022/11/13 11:39:31;;;;;;;9.82;7.82;;;8.70;92.50;;;;;;5074080;28;20277;-92
2022/11/13 11:42:15;;;;;;;9.43;7.78;;;8.80;92.80;;;;;;5067490;28;20197;-92
2022/11/13 11:45:23;;;;;;;9.10;7.97;;;9.00;91.70;;;;;;5064641;28;20280;-93
2022/11/13 11:47:54;;;;;;;11.30;8.85;;;8.90;91.70;;;;;;5074261;28;20208;-91
2022/11/13 11:50:30;;;;;;;10.75;8.68;;;8.90;91.90;;;;;;5074884;28;20276;-92
2022/11/13 11:53:03;;;;;;;11.15;9.18;;;8.90;92.10;;;;;;5069755;28;20197;-91
2022/11/13 11:55:49;;;;;;;10.85;9.13;;;9.00;91.50;;;;;;5050213;28;20201;-93
2022/11/13 11:58:38;;;;;;;13.57;10.18;;;9.10;91.80;;;;;;5059928;28;20258;-93
2022/11/13 12:01:16;;;;;;;14.85;10.82;;;9.20;91.00;;;;;;5048120;28;20610;-92
2022/11/13 12:04:17;;;;;;;15.10;10.48;;;9.20;91.00;;;;;;5061774;28;20208;-93
2022/11/13 12:07:06;;;;;;;14.07;11.00;;;9.20;90.50;;;;;;5051320;28;20198;-90
2022/11/13 12:20:09;;;;;;;15.23;11.43;;;9.30;91.40;;;;;;5037200;28;20201;-89
2022/11/13 12:26:13;;;;;;;15.70;11.98;;;9.30;91.30;;;;;;5059655;28;20188;-90
2022/11/13 12:32:28;;;;;;;15.23;11.95;;;9.30;91.90;;;;;;5053836;28;20185;-90
2022/11/13 12:35:16;;;;;;;15.15;11.60;;;9.40;91.70;;;;;;5064508;28;20220;-89
2022/11/13 12:37:54;;;;;;;13.43;10.63;;;9.30;92.10;;;;;;5055278;28;20589;-90
2022/11/13 12:40:28;;;;;;;15.13;11.55;;;9.40;92.00;;;;;;5045263;28;20212;-90
2022/11/13 12:43:05;;;;;;;14.38;11.25;;;9.40;92.40;;;;;;5050205;28;20239;-90
2022/11/13 12:45:46;;;;;;;14.85;11.70;;;9.40;91.80;;;;;;5054398;28;20254;-91
2022/11/13 12:48:32;;;;;;;14.38;11.30;;;9.50;91.80;;;;;;5045818;28;20265;-89
2022/11/13 12:51:41;;;;;;;15.13;11.43;;;9.50;92.10;;;;;;5054726;28;20202;-91
2022/11/13 12:54:36;;;;;;;15.00;11.23;;;9.50;92.30;;;;;;5038037;28;20237;-92
2022/11/13 12:57:23;;;;;;;15.07;11.20;;;9.70;92.10;;;;;;5043925;28;20234;-92
2022/11/13 12:59:53;;;;;;;12.40;10.77;;;9.60;92.20;;;;;;5050358;28;20199;-93
2022/11/13 13:02:50;;;;;;;14.15;11.48;;;9.50;92.30;;;;;;5048105;28;20293;-92
2022/11/13 13:05:53;;;;;;;13.13;10.63;;;9.50;92.50;;;;;;5054722;28;20273;-91
2022/11/13 13:08:47;;;;;;;13.23;10.07;;;9.50;92.70;;;;;;5053170;28;20225;-91
2022/11/13 13:11:19;;;;;;;12.75;9.73;;;9.50;92.50;;;;;;5051603;28;20209;-91
2022/11/13 13:17:24;;;;;;;12.60;9.05;;;9.70;92.40;;;;;;5040333;28;20285;-90
2022/11/13 13:19:59;;;;;;;13.55;10.65;;;9.80;92.30;;;;;;5048720;28;20204;-90
2022/11/13 13:22:31;;;;;;;12.80;10.40;;;9.90;92.00;;;;;;5052138;28;20280;-90
2022/11/13 13:25:03;;;;;;;15.25;10.45;;;9.90;92.20;;;;;;5053450;28;20211;-91
2022/11/13 13:27:36;;;;;;;16.10;10.07;;;10.00;91.70;;;;;;5048177;28;20462;-91
2022/11/13 13:30:17;;;;;;;11.88;9.50;;;10.10;91.50;;;;;;5052673;28;20267;-91
2022/11/13 13:39:49;;;;;;;10.82;8.95;;;10.20;91.40;;;;;;5054930;28;20265;-91
2022/11/13 13:42:56;;;;;;;13.40;9.13;;;10.20;91.20;;;;;;5053917;28;20230;-90
2022/11/13 13:46:05;;;;;;;11.88;9.00;;;10.20;91.30;;;;;;5049928;28;20627;-92
2022/11/13 13:48:52;;;;;;;11.40;8.80;;;10.30;91.40;;;;;;5052625;28;20276;-91
2022/11/13 13:51:29;;;;;;;12.73;9.55;;;10.40;91.20;;;;;;5052155;28;20246;-91
2022/11/13 13:54:19;;;;;;;10.88;8.80;;;10.40;91.20;;;;;;5040779;28;20218;-91
2022/11/13 13:56:50;;;;;;;13.20;8.60;;;10.40;91.50;;;;;;5050974;28;20225;-90
2022/11/13 13:59:20;;;;;;;10.98;7.70;;;10.30;91.60;;;;;;5052214;28;20240;-91
2022/11/13 14:01:57;;;;;;;10.57;8.02;;;10.40;91.10;;;;;;5051350;28;20702;-90
2022/11/13 14:04:34;;;;;;;11.27;8.02;;;10.50;91.00;;;;;;5045394;28;20226;-89
2022/11/13 14:07:02;;;;;;;10.20;7.53;;;10.50;91.00;;;;;;5037306;28;20209;-90
2022/11/13 14:09:31;;;;;;;10.40;7.68;;;10.60;90.40;;;;;;5037263;28;20297;-91
2022/11/13 14:12:01;;;;;;;8.88;7.18;;;10.70;90.50;;;;;;5042958;28;20198;-90
2022/11/13 14:14:39;;;;;;;9.68;7.80;;;10.70;90.40;;;;;;5052569;28;20288;-91
2022/11/13 14:17:06;;;;;;;8.93;7.80;;;10.70;90.70;;;;;;5047467;28;20218;-91
2022/11/13 14:19:33;;;;;;;8.27;7.15;;;10.80;90.50;;;;;;5051535;28;20197;-90
2022/11/13 14:22:02;;;;;;;9.70;7.70;;;10.80;90.50;;;;;;5045263;28;20280;-91